createdAt,value
2022-12-13T00:01:38.502Z,96475.19
2022-12-13T00:05:45.920Z,96470.13
2022-12-13T00:09:49.100Z,96471.13
2022-12-13T00:13:49.938Z,96461.22
2022-12-13T00:17:50.609Z,96475.16
2022-12-13T00:21:51.373Z,96477.09
2022-12-13T00:25:54.575Z,96433.66
2022-12-13T00:29:54.869Z,96457.47
2022-12-13T00:33:55.390Z,96465.44
2022-12-13T00:37:55.599Z,96469.97
2022-12-13T00:41:58.747Z,96476.28
2022-12-13T00:45:59.539Z,96443.84
2022-12-13T00:50:00.132Z,96467.22
2022-12-13T00:54:01.952Z,96427.31
2022-12-13T00:58:04.718Z,96462.34
2022-12-13T01:02:04.963Z,96446.78
2022-12-13T01:06:15.679Z,96435.25
2022-12-13T01:10:16.820Z,96458.75
2022-12-13T01:14:21.440Z,96459.41
2022-12-13T01:18:21.831Z,96467.50
2022-12-13T01:22:22.104Z,96463.63
2022-12-13T01:26:24.853Z,96456.16
2022-12-13T01:30:28.385Z,96429.56
2022-12-13T01:34:29.183Z,96443.50
2022-12-13T01:38:29.465Z,96448.03
2022-12-13T01:42:29.694Z,96449.81
2022-12-13T01:46:34.362Z,96443.13
2022-12-13T01:50:40.209Z,96444.75
2022-12-13T01:54:47.027Z,96451.19
2022-12-13T01:58:50.086Z,96434.03
2022-12-13T02:02:53.139Z,96416.50
2022-12-13T02:06:53.659Z,96429.94
2022-12-13T02:10:54.166Z,96429.81
2022-12-13T02:14:56.080Z,96422.00
2022-12-13T02:19:49.215Z,96422.94
2022-12-13T02:24:44.481Z,96428.63
2022-12-13T02:29:10.540Z,96418.41
2022-12-13T02:33:42.983Z,96432.66
2022-12-13T02:37:53.682Z,96415.16
2022-12-13T02:42:01.777Z,96405.47
2022-12-13T02:46:05.710Z,96377.69
2022-12-13T02:50:13.115Z,96410.28
2022-12-13T02:54:13.886Z,96409.28
2022-12-13T02:58:16.700Z,96381.38
2022-12-13T03:02:34.338Z,96395.69
2022-12-13T03:06:57.238Z,96353.41
2022-12-13T03:11:08.422Z,96410.91
2022-12-13T03:15:19.250Z,96407.34
2022-12-13T03:19:19.326Z,96390.63
2022-12-13T03:23:23.915Z,96400.81
2022-12-13T03:27:24.207Z,96414.91
2022-12-13T03:31:25.256Z,96412.97
2022-12-13T03:35:34.907Z,96412.44
2022-12-13T03:39:47.418Z,96410.16
2022-12-13T03:43:48.730Z,96414.19
2022-12-13T03:47:48.964Z,96402.00
2022-12-13T03:51:49.232Z,96409.28
2022-12-13T03:55:53.211Z,96402.63
2022-12-13T03:59:53.332Z,96405.72
2022-12-13T04:03:54.123Z,96340.56
2022-12-13T04:07:54.284Z,96388.13
2022-12-13T04:12:16.154Z,96372.38
2022-12-13T04:16:16.402Z,96381.34
2022-12-13T04:20:16.631Z,96363.19
2022-12-13T04:24:16.804Z,96367.91
2022-12-13T04:28:21.732Z,96362.44
2022-12-13T04:32:26.533Z,96357.84
2022-12-13T04:36:31.703Z,96361.22
2022-12-13T04:40:32.815Z,96353.94
2022-12-13T04:44:37.254Z,96356.66
2022-12-13T04:48:37.520Z,96368.34
2022-12-13T04:52:37.671Z,96365.34
2022-12-13T04:56:37.952Z,96360.34
2022-12-13T05:00:44.335Z,96349.78
2022-12-13T05:04:45.135Z,96363.38
2022-12-13T05:08:45.319Z,96360.13
2022-12-13T05:12:45.808Z,96340.97
2022-12-13T05:16:48.762Z,96337.81
2022-12-13T05:20:50.997Z,96333.09
2022-12-13T05:24:51.878Z,96372.50
2022-12-13T05:28:51.988Z,96348.28
2022-12-13T05:32:54.652Z,96366.13
2022-12-13T05:36:55.081Z,96378.06
2022-12-13T05:40:55.299Z,96377.03
2022-12-13T05:44:56.211Z,96354.31
2022-12-13T05:48:58.902Z,96379.97
2022-12-13T05:52:59.161Z,96384.34
2022-12-13T05:56:59.920Z,96373.50
2022-12-13T06:01:09.816Z,96377.56
2022-12-13T06:05:14.986Z,96376.59
2022-12-13T06:09:15.557Z,96369.00
2022-12-13T06:13:21.523Z,96329.09
2022-12-13T06:17:34.345Z,96359.47
2022-12-13T06:21:41.300Z,96329.81
2022-12-13T06:25:50.205Z,96341.47
2022-12-13T06:29:52.059Z,96361.63
2022-12-13T06:33:52.182Z,96354.03
2022-12-13T06:38:01.115Z,96358.41
2022-12-13T06:42:02.710Z,96337.63
2022-12-13T06:46:02.864Z,96353.66
2022-12-13T06:50:05.297Z,96363.53
2022-12-13T06:54:08.745Z,96360.03
2022-12-13T06:58:08.929Z,96361.66
2022-12-13T07:02:15.515Z,96334.38
2022-12-13T07:06:27.833Z,96347.69
2022-12-13T07:10:31.924Z,96360.03
2022-12-13T07:14:32.056Z,96302.75
2022-12-13T07:18:41.948Z,96360.63
2022-12-13T07:22:47.537Z,96334.38
2022-12-13T07:26:51.290Z,96350.28
2022-12-13T07:30:52.016Z,96371.34
2022-12-13T07:34:52.250Z,96361.34
2022-12-13T07:38:55.447Z,96367.69
2022-12-13T07:42:59.792Z,96354.59
2022-12-13T07:47:00.063Z,96354.53
2022-12-13T07:51:06.905Z,96355.78
2022-12-13T07:55:08.227Z,96370.06
2022-12-13T07:59:12.005Z,96366.41
2022-12-13T08:03:25.262Z,96360.81
2022-12-13T08:07:26.092Z,96367.50
2022-12-13T08:11:26.899Z,96361.78
2022-12-13T08:15:29.667Z,96364.41
2022-12-13T08:19:29.739Z,96339.06
2022-12-13T08:23:32.308Z,96365.47
2022-12-13T08:27:32.628Z,96362.00
2022-12-13T08:31:36.009Z,96358.13
2022-12-13T08:35:38.277Z,96349.69
2022-12-13T08:39:42.426Z,96374.91
2022-12-13T08:43:43.277Z,96378.31
2022-12-13T08:47:46.149Z,96372.19
2022-12-13T08:51:46.359Z,96380.03
2022-12-13T08:55:47.111Z,96376.59
2022-12-13T08:59:47.355Z,96390.41
2022-12-13T09:03:49.993Z,96388.16
2022-12-13T09:07:50.104Z,96382.34
2022-12-13T09:11:50.235Z,96375.13
2022-12-13T09:16:01.504Z,96326.13
2022-12-13T09:20:10.193Z,96382.47
2022-12-13T09:24:26.131Z,96369.66
2022-12-13T09:28:26.404Z,96373.22
2022-12-13T09:32:27.756Z,96334.75
2022-12-13T09:36:30.412Z,96357.75
2022-12-13T09:40:37.562Z,96354.09
2022-12-13T09:44:49.717Z,96297.06
2022-12-13T09:49:01.863Z,96357.47
2022-12-13T09:53:12.094Z,96326.84
2022-12-13T09:57:34.349Z,96327.63
2022-12-13T10:01:34.673Z,96329.78
2022-12-13T10:05:40.261Z,96304.47
2022-12-13T10:09:45.944Z,96327.13
2022-12-13T10:13:51.612Z,96328.25
2022-12-13T10:17:55.089Z,96318.31
2022-12-13T10:22:02.847Z,96294.34
2022-12-13T10:26:24.196Z,96312.50
2022-12-13T10:30:29.217Z,96304.75
2022-12-13T10:34:39.602Z,96325.56
2022-12-13T10:38:46.457Z,96326.69
2022-12-13T10:43:17.286Z,96318.88
2022-12-13T10:47:23.906Z,96241.34
2022-12-13T10:51:25.686Z,96330.47
2022-12-13T10:55:32.867Z,96335.91
2022-12-13T10:59:42.099Z,96332.69
2022-12-13T11:03:42.652Z,96299.50
2022-12-13T11:07:43.754Z,96314.47
2022-12-13T11:11:44.162Z,96303.66
2022-12-13T11:15:47.964Z,96296.53
2022-12-13T11:19:54.373Z,96300.59
2022-12-13T11:23:56.215Z,96294.81
2022-12-13T11:28:26.330Z,96283.81
2022-12-13T11:32:58.764Z,96194.81
2022-12-13T11:37:16.611Z,96191.75
2022-12-13T11:41:31.367Z,96224.47
2022-12-13T11:45:45.186Z,96243.09
2022-12-13T11:49:53.525Z,96191.22
2022-12-13T11:54:03.269Z,96220.59
2022-12-13T11:58:53.530Z,96167.91
2022-12-13T12:02:52.371Z,96176.44
2022-12-13T12:07:24.446Z,96236.13
2022-12-13T12:11:33.304Z,96243.66
2022-12-13T12:15:44.162Z,96227.94
2022-12-13T12:19:49.563Z,96201.06
2022-12-13T12:24:14.566Z,96204.00
2022-12-13T12:28:30.633Z,96216.44
2022-12-13T12:32:44.166Z,96200.47
2022-12-13T12:37:06.490Z,96156.06
2022-12-13T12:41:45.551Z,96215.00
2022-12-13T12:46:05.168Z,96215.16
2022-12-13T12:51:28.352Z,96010.19
2022-12-13T12:56:04.495Z,96190.97
2022-12-13T13:01:19.141Z,96155.84
2022-12-13T13:06:08.323Z,96056.09
2022-12-13T13:16:05.169Z,96062.09
2022-12-13T13:20:26.343Z,96209.53
2022-12-13T13:24:30.148Z,96221.22
2022-12-13T13:28:30.868Z,96226.38
2022-12-13T13:32:34.445Z,96198.16
2022-12-13T13:36:53.021Z,96187.41
2022-12-13T13:40:54.096Z,96204.75
2022-12-13T13:45:23.218Z,96209.81
2022-12-13T13:49:25.420Z,96179.47
2022-12-13T13:54:19.980Z,96215.72
2022-12-13T13:59:03.217Z,96209.31
2022-12-13T14:03:51.421Z,96184.72
2022-12-13T14:08:24.313Z,96176.91
2022-12-13T14:13:24.845Z,96214.19
2022-12-13T14:18:36.254Z,96209.50
2022-12-13T14:22:44.766Z,96217.06
2022-12-13T14:27:09.995Z,96202.72
2022-12-13T14:31:22.367Z,96191.72
2022-12-13T14:35:32.346Z,96181.72
2022-12-13T14:39:34.869Z,96199.06
2022-12-13T14:43:38.201Z,96194.72
2022-12-13T14:47:39.458Z,96190.88
2022-12-13T14:51:42.631Z,96173.28
2022-12-13T14:55:43.946Z,96196.44
2022-12-13T14:59:50.667Z,96150.81
2022-12-13T15:03:51.159Z,96161.41
2022-12-13T15:07:53.963Z,96150.09
2022-12-13T15:11:58.584Z,96157.63
2022-12-13T15:16:10.299Z,96184.25
2022-12-13T15:20:27.787Z,96204.59
2022-12-13T15:24:40.675Z,96204.44
2022-12-13T15:28:47.139Z,96190.19
2022-12-13T15:33:07.197Z,96182.72
2022-12-13T15:37:29.317Z,96190.75
2022-12-13T15:41:37.679Z,96206.84
2022-12-13T15:45:38.768Z,96203.22
2022-12-13T15:49:43.901Z,96208.63
2022-12-13T15:54:06.426Z,96189.47
2022-12-13T15:58:29.959Z,96201.97
2022-12-13T16:02:31.106Z,96149.94
2022-12-13T16:06:31.558Z,96204.31
2022-12-13T16:10:32.922Z,96199.44
2022-12-13T16:14:48.781Z,96195.75
2022-12-13T16:18:56.962Z,96176.41
2022-12-13T16:22:59.969Z,96198.59
2022-12-13T16:27:00.347Z,96198.34
2022-12-13T16:31:21.176Z,96181.59
2022-12-13T16:35:22.288Z,96176.75
2022-12-13T16:39:23.519Z,96177.50
2022-12-13T16:43:33.343Z,96099.28
2022-12-13T16:47:44.671Z,96181.41
2022-12-13T16:51:49.220Z,96171.66
2022-12-13T16:55:58.427Z,96172.03
2022-12-13T16:59:59.867Z,96150.22
2022-12-13T17:04:09.142Z,96167.72
2022-12-13T17:08:14.096Z,96194.91
2022-12-13T17:12:14.600Z,96164.75
2022-12-13T17:16:15.088Z,96182.47
2022-12-13T17:20:20.969Z,96168.22
2022-12-13T17:24:21.651Z,96097.53
2022-12-13T17:28:21.897Z,96174.56
2022-12-13T17:32:22.250Z,96170.19
2022-12-13T17:36:26.232Z,96123.91
2022-12-13T17:40:26.498Z,96167.88
2022-12-13T17:44:27.782Z,96177.16
2022-12-13T17:48:30.632Z,96168.41
2022-12-13T17:52:37.035Z,96171.63
2022-12-13T17:56:37.273Z,96160.41
2022-12-13T18:00:39.385Z,96164.03
2022-12-13T18:04:39.787Z,96148.66
2022-12-13T18:08:44.651Z,96153.06
2022-12-13T18:12:44.934Z,96151.06
2022-12-13T18:16:45.195Z,96149.84
2022-12-13T18:20:46.539Z,96149.00
2022-12-13T18:24:49.311Z,96155.41
2022-12-13T18:28:50.320Z,96130.91
2022-12-13T18:32:50.761Z,96129.81
2022-12-13T18:36:51.061Z,96145.72
2022-12-13T18:40:55.768Z,96101.75
2022-12-13T18:44:56.084Z,96142.69
2022-12-13T18:48:56.839Z,96144.28
2022-12-13T18:52:57.337Z,96123.19
2022-12-13T18:57:00.996Z,96144.03
2022-12-13T19:01:01.737Z,96131.81
2022-12-13T19:05:01.991Z,96148.31
2022-12-13T19:09:02.599Z,96149.66
2022-12-13T19:13:05.633Z,96140.50
2022-12-13T19:17:05.959Z,96168.44
2022-12-13T19:21:10.780Z,96121.22
2022-12-13T19:25:13.762Z,96148.88
2022-12-13T19:29:17.222Z,96140.81
2022-12-13T19:33:18.508Z,96171.75
2022-12-13T19:37:18.773Z,96152.50
2022-12-13T19:41:21.942Z,96140.09
2022-12-13T19:45:24.970Z,96114.78
2022-12-13T19:49:25.127Z,96122.88
2022-12-13T19:53:25.996Z,96117.84
2022-12-13T19:57:27.015Z,96131.78
2022-12-13T20:01:30.038Z,96111.78
2022-12-13T20:05:31.213Z,96130.97
2022-12-13T20:09:31.513Z,96098.56
2022-12-13T20:13:32.834Z,96093.16
2022-12-13T20:17:36.018Z,96102.41
2022-12-13T20:21:36.401Z,96090.16
2022-12-13T20:25:36.959Z,96062.84
2022-12-13T20:29:37.393Z,96096.03
2022-12-13T20:33:42.483Z,96089.63
2022-12-13T20:37:42.968Z,96026.88
2022-12-13T20:41:48.436Z,96069.16
2022-12-13T20:45:49.175Z,96074.34
2022-12-13T20:49:51.966Z,96039.75
2022-12-13T20:53:54.702Z,96058.47
2022-12-13T20:57:55.121Z,96069.38
2022-12-13T21:01:55.419Z,96075.19
2022-12-13T21:05:58.889Z,96032.50
2022-12-13T21:09:59.371Z,96029.69
2022-12-13T21:14:08.364Z,96064.31
2022-12-13T21:18:11.934Z,96064.31
2022-12-13T21:22:15.810Z,96020.03
2022-12-13T21:26:16.267Z,96051.09
2022-12-13T21:30:17.346Z,96052.09
2022-12-13T21:34:17.858Z,96020.56
2022-12-13T21:38:20.973Z,96029.75
2022-12-13T21:42:21.459Z,95990.31
2022-12-13T21:46:31.307Z,96025.25
2022-12-13T21:50:51.826Z,96022.72
2022-12-13T21:55:15.354Z,96010.66
2022-12-13T21:59:15.848Z,95990.56
2022-12-13T22:03:16.430Z,96004.66
2022-12-13T22:07:19.514Z,96022.34
2022-12-13T22:11:22.912Z,96010.28
2022-12-13T22:15:24.197Z,96002.84
2022-12-13T22:19:24.969Z,96022.56
2022-12-13T22:23:25.356Z,96016.91
2022-12-13T22:27:28.158Z,96011.09
2022-12-13T22:31:30.032Z,96000.84
2022-12-13T22:35:30.223Z,96008.47
2022-12-13T22:39:30.431Z,95980.72
2022-12-13T22:43:37.643Z,95996.81
2022-12-13T22:47:37.915Z,95989.59
2022-12-13T22:51:38.770Z,95994.44
2022-12-13T22:55:40.791Z,95944.97
2022-12-13T22:59:43.606Z,95977.13
2022-12-13T23:03:45.111Z,95932.91
2022-12-13T23:07:48.423Z,95963.44
2022-12-13T23:12:01.373Z,95953.81
2022-12-13T23:16:08.321Z,95959.03
2022-12-13T23:20:11.231Z,95949.97
2022-12-13T23:24:12.457Z,95953.41
2022-12-13T23:28:12.643Z,95944.56
2022-12-13T23:32:15.617Z,95949.78
2022-12-13T23:36:22.653Z,95935.91
2022-12-13T23:40:22.766Z,95907.16
2022-12-13T23:44:23.007Z,95902.72
2022-12-13T23:48:27.134Z,95906.16
2022-12-13T23:52:27.431Z,95903.94
2022-12-13T23:56:27.719Z,95887.66
